createdAt,value
2018-02-09T00:33:08.145Z,55.72
2018-02-09T00:35:34.773Z,57.13
2018-02-09T00:38:01.394Z,55.55
2018-02-09T00:40:28.005Z,54.92
2018-02-09T00:42:54.630Z,54.83
2018-02-09T00:45:21.242Z,54.60
2018-02-09T00:47:47.941Z,55.40
2018-02-09T00:50:14.684Z,52.88
2018-02-09T00:52:41.322Z,52.92
2018-02-09T00:55:07.959Z,58.95
2018-02-09T00:57:34.585Z,57.30
2018-02-09T01:00:01.233Z,53.38
2018-02-09T01:02:27.843Z,54.45
2018-02-09T01:04:54.508Z,53.35
2018-02-09T01:43:54.702Z,53.87
2018-02-09T05:52:29.822Z,60.05
2018-02-09T05:54:56.440Z,50.42
2018-02-09T05:57:23.062Z,51.90
2018-02-09T05:59:49.717Z,50.15
2018-02-09T06:02:16.400Z,50.90
2018-02-09T06:04:43.001Z,54.35
2018-02-09T06:07:09.634Z,53.97
2018-02-09T06:09:36.517Z,52.78
2018-02-09T06:12:03.217Z,53.25
2018-02-09T06:14:29.841Z,47.42
2018-02-09T06:16:56.640Z,50.22
2018-02-09T06:19:23.381Z,48.42
2018-02-09T06:21:50.082Z,52.85
2018-02-09T06:24:16.716Z,55.17
2018-02-09T06:26:43.338Z,52.10
2018-02-09T06:29:11.001Z,54.28
2018-02-09T06:31:37.705Z,54.28
2018-02-09T06:34:04.313Z,50.75
2018-02-09T06:36:31.029Z,51.25
2018-02-09T06:38:58.509Z,57.25
2018-02-09T06:41:25.385Z,55.78
2018-02-09T06:43:51.997Z,49.92
2018-02-09T06:46:18.614Z,51.60
2018-02-09T06:48:45.246Z,49.13
2018-02-09T06:51:11.942Z,55.95
2018-02-09T06:53:38.570Z,53.38
2018-02-09T06:56:05.180Z,57.05
2018-02-09T06:58:31.845Z,55.92
2018-02-09T07:00:58.688Z,55.65
2018-02-09T07:03:25.444Z,57.17
2018-02-09T07:05:52.904Z,52.60
2018-02-09T07:08:19.747Z,52.50
2018-02-09T07:10:46.445Z,55.17
2018-02-09T07:13:13.397Z,51.63
2018-02-09T07:15:40.081Z,54.33
2018-02-09T07:18:06.816Z,63.53
2018-02-09T07:20:33.581Z,62.30
2018-02-09T07:23:00.198Z,59.70
2018-02-09T07:25:26.897Z,61.37
2018-02-09T07:27:53.637Z,58.17
2018-02-09T07:30:20.245Z,55.83
2018-02-09T07:32:46.955Z,61.85
2018-02-09T07:35:13.703Z,59.50
2018-02-09T07:37:40.897Z,59.33
2018-02-09T07:40:07.693Z,55.35
2018-02-09T07:42:34.365Z,56.70
2018-02-09T07:45:01.074Z,60.73
2018-02-09T07:47:27.698Z,66.05
2018-02-09T07:49:54.416Z,63.80
2018-02-09T07:52:21.053Z,60.50
2018-02-09T07:54:47.692Z,60.45
2018-02-09T07:57:14.372Z,67.87
2018-02-09T07:59:40.981Z,80.15
2018-02-09T08:02:07.651Z,59.20
2018-02-09T08:04:34.358Z,59.88
2018-02-09T08:07:01.030Z,64.32
2018-02-09T08:09:27.760Z,62.58
2018-02-09T08:11:54.411Z,60.75
2018-02-09T08:14:21.112Z,59.33
2018-02-09T08:16:47.857Z,61.35
2018-02-09T08:19:14.497Z,61.35
2018-02-09T08:21:41.137Z,61.42
2018-02-09T08:24:07.769Z,60.58
2018-02-09T08:26:34.393Z,59.92
2018-02-09T08:29:01.005Z,57.40
2018-02-09T08:31:27.831Z,59.77
2018-02-09T08:33:54.477Z,60.30
2018-02-09T08:36:21.183Z,56.95
2018-02-09T08:38:47.796Z,58.78
2018-02-09T08:41:14.491Z,58.10
2018-02-09T08:43:41.189Z,58.35
2018-02-09T08:46:07.829Z,61.78
2018-02-09T08:48:35.496Z,57.95
2018-02-09T08:51:02.132Z,60.03
2018-02-09T08:53:28.757Z,55.67
2018-02-09T08:55:55.384Z,62.78
2018-02-09T08:58:22.089Z,55.70
2018-02-09T09:00:48.696Z,60.55
2018-02-09T09:03:15.424Z,59.95
2018-02-09T09:05:42.111Z,61.85
2018-02-09T09:08:08.813Z,59.30
2018-02-09T09:10:35.450Z,62.30
2018-02-09T09:13:02.089Z,62.05
2018-02-09T09:15:28.767Z,60.17
2018-02-09T09:17:55.409Z,59.65
2018-02-09T09:20:22.046Z,62.72
2018-02-09T09:22:48.787Z,64.43
2018-02-09T09:25:15.397Z,66.97
2018-02-09T09:27:42.139Z,64.78
2018-02-09T09:30:08.749Z,65.67
2018-02-09T09:32:35.413Z,63.33
2018-02-09T09:35:02.040Z,60.35
2018-02-09T09:37:28.725Z,67.22
2018-02-09T09:39:55.342Z,61.28
2018-02-09T09:42:21.972Z,62.20
2018-02-09T09:44:48.640Z,61.97
2018-02-09T09:47:15.226Z,67.80
2018-02-09T09:49:41.877Z,61.60
2018-02-09T09:52:08.530Z,60.75
2018-02-09T09:54:35.262Z,64.28
2018-02-09T09:57:01.898Z,64.65
2018-02-09T09:59:28.542Z,65.47
2018-02-09T10:01:55.219Z,64.00
2018-02-09T10:04:21.862Z,63.67
2018-02-09T10:06:48.469Z,65.15
2018-02-09T10:09:15.201Z,63.75
2018-02-09T10:11:41.877Z,69.05
2018-02-09T10:14:08.585Z,69.47
2018-02-09T10:16:35.217Z,67.10
2018-02-09T10:19:01.962Z,65.28
2018-02-09T10:21:28.627Z,61.58
2018-02-09T10:23:55.341Z,67.00
2018-02-09T10:26:22.077Z,62.13
2018-02-09T10:28:48.765Z,61.55
2018-02-09T10:31:15.394Z,64.50
2018-02-09T10:33:42.013Z,62.00
2018-02-09T10:36:08.642Z,62.80
2018-02-09T10:38:35.318Z,67.43
2018-02-09T10:41:01.933Z,61.85
2018-02-09T10:43:28.595Z,64.25
2018-02-09T10:45:55.297Z,66.57
2018-02-09T10:48:21.950Z,62.28
2018-02-09T10:50:48.716Z,64.75
2018-02-09T10:53:15.329Z,63.35
2018-02-09T10:55:41.995Z,60.53
2018-02-09T10:58:08.633Z,63.72
2018-02-09T11:00:41.010Z,69.57
2018-02-09T11:03:07.637Z,63.67
2018-02-09T11:05:34.261Z,58.35
2018-02-09T11:08:00.992Z,63.85
2018-02-09T11:10:32.348Z,72.82
2018-02-09T11:12:58.969Z,67.18
2018-02-09T11:15:25.613Z,75.57
2018-02-09T11:17:52.233Z,71.10
2018-02-09T11:20:18.894Z,67.82
2018-02-09T11:22:45.737Z,63.28
2018-02-09T11:25:12.373Z,68.95
2018-02-09T11:27:39.159Z,61.78
2018-02-09T11:30:06.618Z,64.57
2018-02-09T11:32:34.795Z,64.07
2018-02-09T11:35:02.389Z,63.92
2018-02-09T11:37:30.747Z,65.72
2018-02-09T11:39:58.340Z,63.92
2018-02-09T11:42:26.826Z,60.53
2018-02-09T11:44:54.029Z,59.05
2018-02-09T11:47:20.685Z,58.45
2018-02-09T11:49:47.364Z,63.83
2018-02-09T11:52:13.982Z,63.58
2018-02-09T11:54:42.390Z,64.72
2018-02-09T11:57:09.062Z,65.25
2018-02-09T11:59:37.899Z,70.90
2018-02-09T12:02:04.549Z,65.72
2018-02-09T12:04:31.174Z,67.80
2018-02-09T12:06:57.830Z,65.68
2018-02-09T12:09:24.482Z,70.68
2018-02-09T12:11:51.098Z,68.10
2018-02-09T12:14:17.794Z,65.53
2018-02-09T12:16:44.405Z,62.25
2018-02-09T12:19:11.039Z,69.80
2018-02-09T12:21:37.653Z,68.57
2018-02-09T12:24:04.304Z,62.47
2018-02-09T12:26:31.048Z,61.20
2018-02-09T12:28:57.674Z,66.53
2018-02-09T12:31:24.301Z,62.30
2018-02-09T12:33:50.933Z,61.85
2018-02-09T12:36:17.550Z,63.83
2018-02-09T12:38:44.288Z,59.15
2018-02-09T12:41:10.905Z,74.30
2018-02-09T12:43:37.540Z,62.03
2018-02-09T12:46:04.161Z,70.75
2018-02-09T12:48:30.782Z,65.53
2018-02-09T12:50:57.425Z,66.55
2018-02-09T12:53:24.049Z,62.83
2018-02-09T12:55:50.760Z,67.75
2018-02-09T12:58:17.439Z,62.70
2018-02-09T13:00:44.058Z,65.93
2018-02-09T13:03:10.678Z,79.10
2018-02-09T13:05:37.418Z,57.45
2018-02-09T13:08:04.030Z,60.50
2018-02-09T13:10:30.763Z,61.60
2018-02-09T13:13:03.242Z,57.70
2018-02-09T13:15:29.915Z,56.50
2018-02-09T13:17:56.616Z,56.92
2018-02-09T13:20:23.249Z,58.85
2018-02-09T13:22:55.733Z,57.78
2018-02-09T13:25:22.410Z,54.70
2018-02-09T13:27:49.112Z,59.10
2018-02-09T13:30:15.733Z,59.47
2018-02-09T13:32:48.249Z,61.42
2018-02-09T13:35:14.866Z,63.33
2018-02-09T13:37:41.489Z,62.90
2018-02-09T13:40:08.142Z,61.20
2018-02-09T13:42:34.886Z,57.83
2018-02-09T13:45:01.514Z,56.53
2018-02-09T13:47:28.156Z,54.92
2018-02-09T13:49:54.774Z,60.47
2018-02-09T13:52:21.390Z,54.50
2018-02-09T13:54:48.021Z,58.42
2018-02-09T13:57:15.401Z,57.45
2018-02-09T13:59:42.116Z,56.00
2018-02-09T14:02:08.817Z,62.15
2018-02-09T14:04:35.561Z,66.03
2018-02-09T14:07:02.190Z,67.97
2018-02-09T14:09:28.801Z,65.72
2018-02-09T14:11:55.437Z,59.40
2018-02-09T14:14:22.054Z,59.97
2018-02-09T14:16:48.674Z,63.60
2018-02-09T14:19:15.334Z,61.13
2018-02-09T14:21:42.034Z,63.83
2018-02-09T14:24:08.649Z,53.50
2018-02-09T14:26:35.277Z,58.25
2018-02-09T14:29:01.929Z,60.22
2018-02-09T14:31:28.589Z,57.75
2018-02-09T14:33:55.329Z,61.78
2018-02-09T14:36:21.953Z,58.25
2018-02-09T14:38:48.577Z,58.47
2018-02-09T14:41:15.245Z,54.85
2018-02-09T14:43:41.989Z,55.88
2018-02-09T14:46:08.610Z,59.53
2018-02-09T14:48:35.266Z,56.33
2018-02-09T14:51:01.945Z,58.60
2018-02-09T14:53:28.556Z,58.55
2018-02-09T14:55:55.169Z,56.22
2018-02-09T14:58:21.821Z,60.60
2018-02-09T15:00:48.445Z,58.05
2018-02-09T15:03:15.101Z,56.67
2018-02-09T15:05:41.729Z,59.38
2018-02-09T15:08:08.341Z,54.83
2018-02-09T15:10:34.973Z,58.30
2018-02-09T15:13:01.700Z,59.22
2018-02-09T15:15:28.314Z,57.62
2018-02-09T15:17:54.977Z,58.10
2018-02-09T15:20:21.637Z,56.70
2018-02-09T15:22:48.317Z,61.30
2018-02-09T15:25:14.953Z,59.30
2018-02-09T15:27:41.596Z,58.65
2018-02-09T15:30:08.221Z,56.30
2018-02-09T15:32:34.872Z,57.22
2018-02-09T15:35:01.624Z,56.53
2018-02-09T15:37:28.242Z,59.70
2018-02-09T15:39:54.865Z,59.45
2018-02-09T15:42:21.493Z,60.95
2018-02-09T15:44:48.169Z,55.80
2018-02-09T15:47:14.853Z,59.92
2018-02-09T15:49:41.561Z,58.70
2018-02-09T15:52:08.204Z,58.83
2018-02-09T15:54:34.830Z,58.40
2018-02-09T15:57:01.573Z,56.72
2018-02-09T15:59:28.257Z,62.90
2018-02-09T16:01:54.958Z,59.53
2018-02-09T16:04:21.594Z,60.53
2018-02-09T16:06:48.200Z,58.05
2018-02-09T16:09:14.825Z,61.20
2018-02-09T16:11:41.509Z,61.63
2018-02-09T16:14:08.132Z,55.70
2018-02-09T16:16:34.774Z,58.97
2018-02-09T16:19:01.390Z,60.10
2018-02-09T16:21:28.005Z,58.25
2018-02-09T16:23:54.646Z,59.35
2018-02-09T16:26:21.263Z,62.05
2018-02-09T16:28:47.878Z,62.47
2018-02-09T16:31:14.560Z,61.15
2018-02-09T16:33:41.170Z,63.15
2018-02-09T16:36:07.790Z,65.37
2018-02-09T16:38:34.422Z,62.53
2018-02-09T16:41:01.037Z,63.83
2018-02-09T16:43:27.756Z,66.07
2018-02-09T16:45:54.454Z,64.03
2018-02-09T16:48:21.074Z,66.45
2018-02-09T16:50:47.738Z,66.90
2018-02-09T16:53:14.397Z,65.12
2018-02-09T16:55:41.014Z,66.50
2018-02-09T16:58:07.633Z,68.05
2018-02-09T17:00:34.267Z,63.22
2018-02-09T17:03:00.930Z,65.47
2018-02-09T17:05:27.559Z,68.62
2018-02-09T17:07:54.210Z,69.47
2018-02-09T17:10:20.846Z,62.90
2018-02-09T17:12:47.528Z,60.88
2018-02-09T17:15:14.229Z,65.35
2018-02-09T17:17:40.869Z,63.13
2018-02-09T17:20:07.505Z,63.65
2018-02-09T17:22:34.166Z,62.15
2018-02-09T17:25:00.785Z,63.55
2018-02-09T17:27:27.405Z,64.97
2018-02-09T17:29:54.104Z,66.22
2018-02-09T17:32:20.747Z,69.50
2018-02-09T17:34:47.362Z,76.47
2018-02-09T17:37:13.988Z,62.85
2018-02-09T17:39:40.613Z,67.90
2018-02-09T17:42:07.257Z,67.30
2018-02-09T17:44:33.894Z,70.93
2018-02-09T17:47:00.504Z,77.40
2018-02-09T17:49:27.217Z,73.20
2018-02-09T17:51:53.846Z,70.55
2018-02-09T17:54:20.466Z,68.43
2018-02-09T17:56:47.085Z,64.80
2018-02-09T17:59:13.716Z,66.07
2018-02-09T18:01:40.412Z,66.30
2018-02-09T18:04:07.118Z,63.78
2018-02-09T18:06:33.791Z,64.60
2018-02-09T18:09:00.401Z,65.97
2018-02-09T18:11:27.021Z,60.50
2018-02-09T18:13:53.669Z,62.22
2018-02-09T18:16:20.285Z,62.67
2018-02-09T18:18:46.906Z,62.95
2018-02-09T18:21:13.541Z,59.75
2018-02-09T18:23:40.266Z,61.65
2018-02-09T18:26:06.964Z,61.30
2018-02-09T18:28:33.593Z,59.03
2018-02-09T18:31:00.213Z,68.35
2018-02-09T18:33:26.890Z,63.47
2018-02-09T18:35:53.521Z,67.05
2018-02-09T18:38:20.150Z,63.17
2018-02-09T18:40:46.842Z,61.80
2018-02-09T18:43:13.448Z,64.22
2018-02-09T18:45:40.223Z,63.53
2018-02-09T18:48:06.830Z,64.45
2018-02-09T18:50:33.447Z,65.00
2018-02-09T18:53:00.081Z,68.93
2018-02-09T18:55:26.702Z,62.13
2018-02-09T18:57:53.418Z,63.38
2018-02-09T19:00:20.117Z,65.65
2018-02-09T19:02:46.797Z,65.28
2018-02-09T19:05:13.409Z,63.30
2018-02-09T19:07:40.141Z,61.58
2018-02-09T19:10:06.754Z,65.90
2018-02-09T19:12:33.416Z,65.72
2018-02-09T19:15:00.045Z,63.35
2018-02-09T19:17:26.693Z,68.85
2018-02-09T19:19:53.379Z,66.50
2018-02-09T19:22:20.006Z,70.25
2018-02-09T19:24:46.715Z,64.25
2018-02-09T19:27:13.429Z,66.78
2018-02-09T19:29:40.097Z,62.45
2018-02-09T19:32:06.746Z,64.80
2018-02-09T19:34:33.376Z,68.68
2018-02-09T19:37:00.019Z,66.85
2018-02-09T19:39:26.633Z,70.75
2018-02-09T19:41:53.297Z,64.68
2018-02-09T19:44:19.934Z,65.25
2018-02-09T19:46:46.549Z,64.32
2018-02-09T19:49:13.186Z,66.37
2018-02-09T19:51:39.889Z,65.57
2018-02-09T19:54:06.626Z,64.65
2018-02-09T19:56:33.233Z,62.58
2018-02-09T19:58:59.849Z,69.68
2018-02-09T20:01:26.490Z,68.93
2018-02-09T20:03:53.106Z,67.95
2018-02-09T20:06:19.721Z,66.20
2018-02-09T20:08:46.352Z,65.05
2018-02-09T20:11:12.966Z,69.55
2018-02-09T20:13:39.596Z,63.85
2018-02-09T20:16:06.234Z,68.15
2018-02-09T20:18:32.877Z,67.53
2018-02-09T20:20:59.638Z,68.30
2018-02-09T20:23:26.246Z,70.60
2018-02-09T20:25:52.903Z,67.47
2018-02-09T20:28:19.538Z,66.93
2018-02-09T20:30:46.169Z,67.72
2018-02-09T20:33:12.815Z,68.97
2018-02-09T20:35:39.458Z,75.30
2018-02-09T20:38:06.093Z,78.20
2018-02-09T20:40:32.705Z,68.47
2018-02-09T20:42:59.334Z,66.15
2018-02-09T20:45:26.009Z,63.83
2018-02-09T20:47:52.654Z,67.35
2018-02-09T20:50:19.269Z,68.12
2018-02-09T20:52:45.929Z,67.82
2018-02-09T20:55:12.569Z,66.53
2018-02-09T20:57:39.189Z,69.28
2018-02-09T21:00:05.813Z,67.32
2018-02-09T21:02:32.480Z,67.55
2018-02-09T21:04:59.134Z,65.25
2018-02-09T21:07:25.746Z,66.95
2018-02-09T21:09:52.441Z,69.78
2018-02-09T21:12:19.049Z,67.82
2018-02-09T21:14:45.685Z,70.37
2018-02-09T21:17:12.321Z,70.40
2018-02-09T21:19:38.933Z,70.28
2018-02-09T21:22:05.565Z,68.57
2018-02-09T21:24:32.238Z,67.57
2018-02-09T21:26:58.873Z,67.40
2018-02-09T21:29:25.538Z,64.85
2018-02-09T21:31:52.134Z,63.15
2018-02-09T21:34:18.749Z,65.25
2018-02-09T21:36:45.429Z,68.07
2018-02-09T21:39:12.075Z,66.55
2018-02-09T21:41:38.690Z,64.25
2018-02-09T21:44:05.331Z,61.72
2018-02-09T21:46:31.985Z,67.57
2018-02-09T21:48:58.872Z,71.50
2018-02-09T21:51:25.493Z,64.05
2018-02-09T21:53:52.149Z,69.45
2018-02-09T21:56:18.851Z,67.80
2018-02-09T21:58:45.484Z,67.30
2018-02-09T22:01:12.100Z,63.38
2018-02-09T22:03:38.713Z,61.80
2018-02-09T22:06:05.406Z,64.75
2018-02-09T22:08:32.041Z,63.60
2018-02-09T22:10:58.685Z,53.90
2018-02-09T22:13:25.313Z,56.78
2018-02-09T22:15:51.939Z,61.85
2018-02-09T22:18:18.645Z,63.45
2018-02-09T22:20:45.274Z,59.20
2018-02-09T22:23:11.921Z,58.90
2018-02-09T22:25:38.545Z,60.83
2018-02-09T22:28:05.164Z,58.95
2018-02-09T22:30:31.782Z,59.75
2018-02-09T22:32:58.406Z,57.10
2018-02-09T22:35:25.022Z,59.00
2018-02-09T22:37:51.652Z,57.92
2018-02-09T22:40:18.257Z,54.35
2018-02-09T22:42:44.873Z,54.38
2018-02-09T22:45:11.552Z,53.35
2018-02-09T22:47:38.173Z,54.17
2018-02-09T22:50:04.794Z,53.65
2018-02-09T22:52:31.421Z,51.47
2018-02-09T22:54:58.085Z,50.70
2018-02-09T22:57:24.693Z,52.83
2018-02-09T22:59:51.404Z,53.85
2018-02-09T23:02:18.010Z,52.03
2018-02-09T23:04:44.642Z,52.13
2018-02-09T23:07:11.270Z,52.10
2018-02-09T23:09:37.881Z,51.67
2018-02-09T23:12:04.601Z,51.63
2018-02-09T23:14:31.306Z,52.50
2018-02-09T23:16:57.942Z,51.03
2018-02-09T23:19:24.625Z,55.25
2018-02-09T23:21:51.317Z,52.75
2018-02-09T23:24:17.933Z,50.65
2018-02-09T23:26:44.641Z,50.85
2018-02-09T23:29:11.337Z,48.97
2018-02-09T23:31:38.021Z,51.53
2018-02-09T23:34:04.723Z,51.58
2018-02-09T23:36:31.333Z,49.83
2018-02-09T23:38:57.961Z,53.95
2018-02-09T23:41:24.680Z,53.47
2018-02-09T23:43:51.377Z,50.90
2018-02-09T23:46:18.027Z,50.20
2018-02-09T23:48:44.633Z,48.90
2018-02-09T23:51:11.302Z,49.83
2018-02-09T23:53:37.913Z,52.53
2018-02-09T23:56:04.545Z,47.17
2018-02-09T23:58:31.157Z,53.13
